Terminal Aerodrome Forecast
Issued by NWS Sioux Falls, SD

Home | Current Version | Previous Version | Graphics & Text | Print | Product List | Glossary On
Versions: 1 2 3 4 5 6 7 8 9 10 11 12 13 14 15 16 17 18 19 20 21 22 23 24 25 26 27 28
000
FTUS43 KFSD 281906 AAA
TAFSUX
TAF AMD
KSUX 281906Z 2819/2918 31012G20KT P6SM BKN018
     FM282000 32014G20KT P6SM BKN030
     FM282100 32014G20KT P6SM FEW035
     FM290200 30005KT P6SM SKC
     FM291600 32009KT P6SM SKC=

USA.gov is the U.S. government's official web portal to all federal, state and local government web resources and services.